This is the latest recevied weather packets stored in our database for station/object KE6YLF. If no packets are shown the sender has not sent any weather packets the latest 1 day(s).
| Time | Temp. | Humidity | Pressure | Rain* | Wind** | Luminosity | Snow |
|---|---|---|---|---|---|---|---|
| 1778100884 | 25.56° C | 24% | 1078.1 hPa | 0 mm | - | - | - |
| 1778098157 | 25° C | 26% | 1078.5 hPa | 0 mm | - | - | - |
| 1778097853 | 23.89° C | 26% | 1078.7 hPa | 0 mm | - | - | - |
| 1778095125 | 25.56° C | 26% | 1079 hPa | 0 mm | - | - | - |
| 1778094821 | 24.44° C | 27% | 1079.3 hPa | 0 mm | - | - | - |
| 1778093305 | 23.89° C | 29% | 1079.6 hPa | 0 mm | - | - | - |
| 1778090882 | 23.33° C | 31% | 1079.9 hPa | 0 mm | - | - | - |
| 1778090274 | 23.33° C | 30% | 1080.1 hPa | 0 mm | - | - | - |
| 1778089971 | 22.78° C | 31% | 1080 hPa | 0 mm | - | - | - |
| 1778088760 | 22.78° C | 31% | 1080 hPa | 0 mm | - | - | - |
| 1778088153 | 22.22° C | 32% | 1080 hPa | 0 mm | - | - | - |
| 1778087851 | 22.22° C | 33% | 1080.1 hPa | 0 mm | - | - | - |
| 1778087548 | 22.22° C | 33% | 1079.9 hPa | 0 mm | - | - | - |
| 1778086942 | 21.67° C | 33% | 1079.9 hPa | 0 mm | - | - | - |
| 1778086337 | 21.11° C | 34% | 1080 hPa | 0 mm | - | - | - |
| 1778084819 | 20° C | 35% | 1080 hPa | 0 mm | - | - | - |
| 1778084214 | 20.56° C | 34% | 1079.8 hPa | 0 mm | - | - | - |
| 1778081562 | 19.44° C | 35% | 1079.6 hPa | 0 mm | - | - | - |
| 1778081259 | 19.44° C | 35% | 1079.7 hPa | 0 mm | - | - | - |
| 1778080048 | 18.89° C | 38% | 1079.5 hPa | 0 mm | - | - | - |
| 1778079745 | 18.89° C | 39% | 1079.7 hPa | 0 mm | - | - | - |
| 1778078533 | 18.89° C | 39% | 1079.4 hPa | 0 mm | - | - | - |
| 1778077928 | 17.78° C | 43% | 1079.3 hPa | 0 mm | - | - | - |
| 1778077022 | 17.78° C | 43% | 1079.3 hPa | 0 mm | - | - | - |
| 1778076417 | 17.78° C | 42% | 1079.1 hPa | 0 mm | - | - | - |
* Rain latest hour (hover to see other rain measurements)
** Current wind speed in m/s (hover to see current wind gust speed)